createdAt,value
2019-03-16T00:01:17.473Z,98723.30
2019-03-16T00:03:43.647Z,98732.52
2019-03-16T00:06:09.825Z,98742.55
2019-03-16T00:08:35.990Z,98764.45
2019-03-16T00:11:02.213Z,98774.83
2019-03-16T00:13:28.369Z,98761.83
2019-03-16T00:15:54.555Z,98774.66
2019-03-16T00:18:20.765Z,98768.72
2019-03-16T00:20:46.923Z,98748.64
2019-03-16T00:23:13.123Z,98756.68
2019-03-16T00:25:39.293Z,98752.41
2019-03-16T00:28:05.506Z,98763.62
2019-03-16T00:30:31.683Z,98763.10
2019-03-16T00:32:58.067Z,98758.00
2019-03-16T00:35:24.209Z,98763.10
2019-03-16T00:37:50.396Z,98766.06
2019-03-16T00:40:16.541Z,98769.52
2019-03-16T00:42:42.761Z,98780.56
2019-03-16T00:45:10.813Z,98772.80
2019-03-16T00:47:37.272Z,98770.98
2019-03-16T00:50:12.334Z,98790.75
2019-03-16T00:52:38.719Z,98788.27
2019-03-16T00:55:06.775Z,98790.09
2019-03-16T00:57:32.960Z,98789.92
2019-03-16T00:59:59.120Z,98777.38
2019-03-16T01:02:27.278Z,98794.34
2019-03-16T01:04:53.350Z,98790.56
2019-03-16T01:07:19.548Z,98800.11
2019-03-16T01:09:45.691Z,98794.34
2019-03-16T01:12:12.168Z,98804.87
2019-03-16T01:14:38.338Z,98795.48
2019-03-16T01:17:04.515Z,98815.73
2019-03-16T01:19:30.670Z,98815.24
2019-03-16T01:21:56.865Z,98806.52
2019-03-16T01:24:23.001Z,98808.00
2019-03-16T01:26:49.181Z,98808.83
2019-03-16T01:29:15.433Z,98814.92
2019-03-16T01:31:42.713Z,98811.63
2019-03-16T01:34:08.891Z,98827.79
2019-03-16T01:36:35.039Z,98823.48
2019-03-16T01:39:01.230Z,98820.86
2019-03-16T01:41:27.385Z,98827.95
2019-03-16T01:43:53.902Z,98834.52
2019-03-16T01:46:20.049Z,98821.00
2019-03-16T01:48:46.311Z,98822.48
2019-03-16T01:51:12.748Z,98831.69
2019-03-16T01:53:38.934Z,98831.52
2019-03-16T01:56:05.080Z,98827.74
2019-03-16T01:58:31.279Z,98836.14
2019-03-16T02:01:00.245Z,98837.45
2019-03-16T02:03:32.903Z,98832.83
2019-03-16T02:05:59.066Z,98837.61
2019-03-16T02:08:25.204Z,98843.18
2019-03-16T02:10:51.968Z,98833.95
2019-03-16T02:13:18.221Z,98843.35
2019-03-16T02:15:44.418Z,98840.03
2019-03-16T02:18:10.682Z,98843.16
2019-03-16T02:20:36.841Z,98856.19
2019-03-16T02:23:03.000Z,98861.95
2019-03-16T02:25:29.151Z,98877.75
2019-03-16T02:27:55.358Z,98888.47
2019-03-16T02:30:21.539Z,98893.41
2019-03-16T02:32:47.724Z,98895.40
2019-03-16T02:35:14.101Z,98893.42
2019-03-16T02:37:40.245Z,98905.80
2019-03-16T02:40:08.984Z,98913.20
2019-03-16T02:42:35.164Z,98904.48
2019-03-16T02:45:02.104Z,98912.55
2019-03-16T02:47:28.278Z,98926.56
2019-03-16T02:49:54.462Z,98920.98
2019-03-16T02:52:20.645Z,98914.57
2019-03-16T02:54:46.836Z,98920.48
2019-03-16T02:57:13.018Z,98922.81
2019-03-16T02:59:39.163Z,98920.34
2019-03-16T03:02:05.319Z,98914.41
2019-03-16T03:04:31.523Z,98914.44
2019-03-16T03:06:57.807Z,98895.97
2019-03-16T03:09:24.300Z,98906.34
2019-03-16T03:11:50.441Z,98907.97
2019-03-16T03:14:17.881Z,98913.22
2019-03-16T03:16:44.032Z,98911.09
2019-03-16T03:19:10.308Z,98913.86
2019-03-16T03:21:36.484Z,98912.05
2019-03-16T03:24:02.901Z,98920.46
2019-03-16T03:26:29.051Z,98917.00
2019-03-16T03:28:55.309Z,98928.83
2019-03-16T03:31:21.480Z,98945.14
2019-03-16T03:34:00.050Z,98956.48
2019-03-16T03:36:15.763Z,98957.96
2019-03-16T03:38:41.929Z,98951.55
2019-03-16T03:41:08.188Z,98955.49
2019-03-16T03:43:34.675Z,98960.59
2019-03-16T03:46:00.921Z,98962.90
2019-03-16T03:48:27.128Z,98976.59
2019-03-16T03:50:53.373Z,98979.89
2019-03-16T03:53:19.555Z,98989.09
2019-03-16T03:55:45.703Z,99005.72
2019-03-16T03:58:11.949Z,98997.98
2019-03-16T04:00:38.163Z,99002.94
2019-03-16T04:03:04.295Z,98986.96
2019-03-16T04:05:30.452Z,99003.95
2019-03-16T04:07:56.732Z,99012.48
2019-03-16T04:10:22.913Z,99009.36
2019-03-16T04:12:49.059Z,99012.83
2019-03-16T04:15:15.247Z,99011.34
2019-03-16T04:17:41.441Z,99020.39
2019-03-16T04:20:11.344Z,99018.75
2019-03-16T04:22:37.498Z,99021.88
2019-03-16T04:25:04.425Z,99026.66
2019-03-16T04:27:30.609Z,99023.36
2019-03-16T04:29:56.792Z,99038.02
2019-03-16T04:32:22.948Z,99037.19
2019-03-16T04:34:49.132Z,99046.25
2019-03-16T04:37:16.507Z,99056.80
2019-03-16T04:39:42.658Z,99056.80
2019-03-16T04:42:08.825Z,99057.92
2019-03-16T04:44:34.988Z,99061.55
2019-03-16T04:47:01.137Z,99061.05
2019-03-16T04:49:27.338Z,99069.12
2019-03-16T04:51:53.495Z,99063.55
2019-03-16T04:54:19.753Z,99071.94
2019-03-16T04:56:45.938Z,99082.31
2019-03-16T04:59:12.438Z,99076.39
2019-03-16T05:01:38.603Z,99081.00
2019-03-16T05:04:04.773Z,99085.11
2019-03-16T05:06:30.945Z,99085.94
2019-03-16T05:08:57.136Z,99083.30
2019-03-16T05:11:23.326Z,99082.98
2019-03-16T05:13:49.541Z,99086.77
2019-03-16T05:16:15.750Z,99088.91
2019-03-16T05:18:41.960Z,99106.72
2019-03-16T05:21:08.468Z,99101.45
2019-03-16T05:23:34.623Z,99110.02
2019-03-16T05:26:01.130Z,99111.98
2019-03-16T05:28:27.368Z,99114.45
2019-03-16T05:30:53.539Z,99116.76
2019-03-16T05:33:19.682Z,99124.86
2019-03-16T05:35:45.877Z,99126.67
2019-03-16T05:38:12.042Z,99126.69
2019-03-16T05:40:38.299Z,99136.61
2019-03-16T05:43:04.773Z,99134.30
2019-03-16T05:45:30.946Z,99135.95
2019-03-16T05:47:57.125Z,99141.38
2019-03-16T05:50:23.307Z,99142.38
2019-03-16T05:52:49.460Z,99151.12
2019-03-16T05:55:15.930Z,99152.80
2019-03-16T05:57:42.091Z,99163.02
2019-03-16T06:00:15.922Z,99169.10
2019-03-16T06:02:42.103Z,99166.64
2019-03-16T06:05:11.019Z,99168.31
2019-03-16T06:07:36.884Z,99159.91
2019-03-16T06:10:07.756Z,99168.83
2019-03-16T06:12:33.917Z,99166.08
2019-03-16T06:15:00.125Z,99160.22
2019-03-16T06:17:26.559Z,99169.20
2019-03-16T06:19:52.963Z,99171.16
2019-03-16T06:22:19.158Z,99168.34
2019-03-16T06:24:45.334Z,99175.77
2019-03-16T06:27:11.574Z,99178.92
2019-03-16T06:29:38.081Z,99186.03
2019-03-16T06:32:04.373Z,99186.91
2019-03-16T06:34:31.370Z,99182.48
2019-03-16T06:36:58.015Z,99183.56
2019-03-16T06:39:24.449Z,99192.09
2019-03-16T06:41:50.596Z,99207.05
2019-03-16T06:44:16.812Z,99205.41
2019-03-16T06:46:43.355Z,99211.02
2019-03-16T06:49:09.507Z,99207.87
2019-03-16T06:51:35.684Z,99212.17
2019-03-16T06:54:01.921Z,99203.27
2019-03-16T06:56:28.127Z,99217.77
2019-03-16T06:58:54.326Z,99223.05
2019-03-16T07:01:20.530Z,99221.91
2019-03-16T07:03:46.741Z,99225.41
2019-03-16T07:06:13.046Z,99218.02
2019-03-16T07:08:39.944Z,99216.36
2019-03-16T07:11:06.125Z,99216.69
2019-03-16T07:13:32.293Z,99214.90
2019-03-16T07:16:01.140Z,99226.97
2019-03-16T07:18:27.675Z,99223.83
2019-03-16T07:20:54.746Z,99217.42
2019-03-16T07:23:27.002Z,99222.70
2019-03-16T07:25:53.287Z,99213.16
2019-03-16T07:28:19.484Z,99215.47
2019-03-16T07:30:45.953Z,99210.23
2019-03-16T07:33:12.136Z,99207.30
2019-03-16T07:35:38.310Z,99206.98
2019-03-16T07:38:04.528Z,99210.50
2019-03-16T07:40:30.687Z,99215.66
2019-03-16T07:43:02.338Z,99217.52
2019-03-16T07:45:28.487Z,99215.13
2019-03-16T07:47:55.007Z,99223.30
2019-03-16T07:50:21.413Z,99220.61
2019-03-16T07:52:47.769Z,99225.17
2019-03-16T07:55:14.937Z,99226.92
2019-03-16T07:57:41.407Z,99231.50
2019-03-16T08:00:10.702Z,99226.78
2019-03-16T08:02:36.901Z,99205.89
2019-03-16T08:05:17.519Z,99229.36
2019-03-16T08:07:33.250Z,99241.98
2019-03-16T08:10:02.989Z,99228.78
2019-03-16T08:12:28.913Z,99218.40
2019-03-16T08:14:55.066Z,99228.98
2019-03-16T08:17:21.231Z,99217.27
2019-03-16T08:19:47.422Z,99234.27
2019-03-16T08:22:13.821Z,99225.81
2019-03-16T08:24:40.087Z,99218.16
2019-03-16T08:27:09.678Z,99234.17
2019-03-16T08:29:36.025Z,99239.92
2019-03-16T08:32:02.246Z,99239.74
2019-03-16T08:34:28.384Z,99243.70
2019-03-16T08:36:54.557Z,99250.92
2019-03-16T08:39:20.745Z,99221.14
2019-03-16T08:41:46.854Z,99255.98
2019-03-16T08:44:13.051Z,99260.91
2019-03-16T08:46:39.495Z,99270.95
2019-03-16T08:49:05.694Z,99256.70
2019-03-16T08:51:31.944Z,99269.59
2019-03-16T08:53:58.141Z,99279.29
2019-03-16T08:56:24.369Z,99288.23
2019-03-16T08:58:50.766Z,99294.31
2019-03-16T09:01:21.667Z,99293.66
2019-03-16T09:03:47.806Z,99292.11
2019-03-16T09:06:14.438Z,99318.62
2019-03-16T09:08:40.610Z,99319.86
2019-03-16T09:11:06.774Z,99337.29
2019-03-16T09:13:36.241Z,99348.13
2019-03-16T09:16:02.388Z,99353.86
2019-03-16T09:18:28.568Z,99355.33
2019-03-16T09:20:54.842Z,99363.86
2019-03-16T09:23:21.035Z,99363.77
2019-03-16T09:25:47.168Z,99374.23
2019-03-16T09:28:18.689Z,99380.67
2019-03-16T09:30:41.445Z,99384.16
2019-03-16T09:33:07.674Z,99384.73
2019-03-16T09:35:33.809Z,99389.88
2019-03-16T09:38:00.031Z,99390.09
2019-03-16T09:40:26.163Z,99396.91
2019-03-16T09:42:52.708Z,99391.67
2019-03-16T09:45:18.893Z,99397.83
2019-03-16T09:47:45.708Z,99400.33
2019-03-16T09:50:12.255Z,99386.25
2019-03-16T09:52:38.423Z,99397.38
2019-03-16T09:55:10.178Z,99402.25
2019-03-16T09:57:36.331Z,99403.78
2019-03-16T10:00:07.877Z,99405.19
2019-03-16T10:02:34.041Z,99405.90
2019-03-16T10:05:00.373Z,99407.47
2019-03-16T10:07:27.702Z,99403.19
2019-03-16T10:09:53.907Z,99413.85
2019-03-16T10:12:20.056Z,99407.97
2019-03-16T10:14:46.542Z,99411.14
2019-03-16T10:17:12.702Z,99410.23
2019-03-16T10:19:38.879Z,99406.73
2019-03-16T10:22:05.038Z,99408.88
2019-03-16T10:24:31.201Z,99407.11
2019-03-16T10:26:57.400Z,99404.15
2019-03-16T10:29:23.643Z,99405.17
2019-03-16T10:31:50.281Z,99405.67
2019-03-16T10:34:16.418Z,99408.47
2019-03-16T10:36:42.566Z,99400.08
2019-03-16T10:39:08.740Z,99396.25
2019-03-16T10:41:34.904Z,99395.42
2019-03-16T10:44:01.449Z,99397.08
2019-03-16T10:46:27.603Z,99392.17
2019-03-16T10:48:53.780Z,99393.36
2019-03-16T10:51:19.943Z,99389.91
2019-03-16T10:53:46.121Z,99396.70
2019-03-16T10:56:12.291Z,99400.81
2019-03-16T10:58:38.461Z,99397.39
2019-03-16T11:01:04.607Z,99399.08
2019-03-16T11:03:30.797Z,99397.27
2019-03-16T11:05:56.941Z,99395.00
2019-03-16T11:08:23.097Z,99389.57
2019-03-16T11:10:49.311Z,99386.36
2019-03-16T11:13:15.559Z,99381.29
2019-03-16T11:15:41.730Z,99378.53
2019-03-16T11:18:07.950Z,99383.18
2019-03-16T11:20:34.108Z,99378.64
2019-03-16T11:23:00.259Z,99377.36
2019-03-16T11:25:26.434Z,99375.13
2019-03-16T11:27:52.897Z,99368.48
2019-03-16T11:30:19.160Z,99367.24
2019-03-16T11:32:45.428Z,99364.71
2019-03-16T11:35:11.588Z,99358.55
2019-03-16T11:37:37.736Z,99350.08
2019-03-16T11:40:12.205Z,99340.92
2019-03-16T11:42:38.347Z,99343.62
2019-03-16T11:45:08.200Z,99345.98
2019-03-16T11:47:34.375Z,99340.25
2019-03-16T11:50:00.544Z,99335.50
2019-03-16T11:52:26.951Z,99334.41
2019-03-16T11:54:53.142Z,99328.02
2019-03-16T11:57:19.303Z,99322.37
2019-03-16T11:59:45.468Z,99321.03
2019-03-16T12:02:11.649Z,99312.07
2019-03-16T12:04:37.801Z,99305.45
2019-03-16T12:07:04.169Z,99296.71
2019-03-16T12:09:30.323Z,99296.31
2019-03-16T12:11:56.472Z,99286.66
2019-03-16T12:14:22.645Z,99284.47
2019-03-16T12:16:48.804Z,99279.27
2019-03-16T12:19:14.949Z,99269.41
2019-03-16T12:21:41.152Z,99267.64
2019-03-16T12:24:07.297Z,99259.81
2019-03-16T12:26:33.482Z,99253.27
2019-03-16T12:28:59.637Z,99248.95
2019-03-16T12:31:25.791Z,99244.39
2019-03-16T12:33:51.949Z,99240.84
2019-03-16T12:36:18.111Z,99234.83
2019-03-16T12:38:44.259Z,99227.41
2019-03-16T12:41:10.440Z,99223.13
2019-03-16T12:43:37.384Z,99228.23
2019-03-16T12:46:03.565Z,99222.30
2019-03-16T12:48:30.033Z,99211.39
2019-03-16T12:50:56.236Z,99203.62
2019-03-16T12:53:22.387Z,99204.75
2019-03-16T12:55:48.881Z,99208.35
2019-03-16T12:58:15.095Z,99199.13
2019-03-16T13:00:41.596Z,99172.59
2019-03-16T13:03:08.079Z,99168.52
2019-03-16T13:05:34.242Z,99185.39
2019-03-16T13:08:00.407Z,99188.41
2019-03-16T13:10:26.573Z,99165.02
2019-03-16T13:12:53.020Z,99169.33
2019-03-16T13:15:19.240Z,99173.48
2019-03-16T13:17:45.365Z,99165.23
2019-03-16T13:20:15.574Z,99152.66
2019-03-16T13:22:42.067Z,99141.57
2019-03-16T13:25:10.448Z,99142.47
2019-03-16T13:27:37.018Z,99132.50
2019-03-16T13:30:11.314Z,99137.64
2019-03-16T13:32:37.459Z,99135.18
2019-03-16T13:35:06.014Z,99124.81
2019-03-16T13:37:32.172Z,99118.03
2019-03-16T13:39:58.582Z,99110.33
2019-03-16T13:42:24.817Z,99096.02
2019-03-16T13:44:51.255Z,99084.66
2019-03-16T13:47:17.419Z,99085.26
2019-03-16T13:49:44.084Z,99082.66
2019-03-16T13:52:10.283Z,99080.33
2019-03-16T13:54:37.009Z,99080.69
2019-03-16T13:57:03.200Z,99077.26
2019-03-16T13:59:29.333Z,99070.51
2019-03-16T14:01:55.522Z,99071.39
2019-03-16T14:04:21.937Z,99075.27
2019-03-16T14:06:48.132Z,99067.83
2019-03-16T14:09:14.642Z,99059.72
2019-03-16T14:11:41.576Z,99047.80
2019-03-16T14:14:07.965Z,99044.58
2019-03-16T14:16:34.273Z,99050.93
2019-03-16T14:19:00.888Z,99047.19
2019-03-16T14:21:27.098Z,99042.91
2019-03-16T14:23:53.270Z,99037.64
2019-03-16T14:26:19.457Z,99033.70
2019-03-16T14:28:45.639Z,99030.25
2019-03-16T14:31:12.016Z,99028.44
2019-03-16T14:33:38.184Z,99014.72
2019-03-16T14:36:04.578Z,99010.58
2019-03-16T14:38:30.933Z,99010.06
2019-03-16T14:40:57.081Z,99003.83
2019-03-16T14:43:23.283Z,99008.81
2019-03-16T14:45:49.447Z,99007.87
2019-03-16T14:48:15.663Z,99009.03
2019-03-16T14:50:41.813Z,99005.64
2019-03-16T14:53:08.002Z,99004.00
2019-03-16T14:55:34.501Z,99003.37
2019-03-16T14:58:00.789Z,98999.12
2019-03-16T15:00:37.875Z,98994.85
2019-03-16T15:02:55.118Z,98990.73
2019-03-16T15:05:21.610Z,98994.89
2019-03-16T15:07:49.853Z,98983.84
2019-03-16T15:10:16.445Z,98983.04
2019-03-16T15:12:42.652Z,98983.39
2019-03-16T15:15:19.904Z,98974.34
2019-03-16T15:17:46.601Z,98974.18
2019-03-16T15:20:12.760Z,98971.42
2019-03-16T15:22:38.943Z,98970.63
2019-03-16T15:25:11.270Z,98973.70
2019-03-16T15:27:37.289Z,98976.59
2019-03-16T15:30:19.559Z,98972.67
2019-03-16T15:32:45.722Z,98964.48
2019-03-16T15:35:12.007Z,98969.33
2019-03-16T15:37:38.194Z,98961.12
2019-03-16T15:40:10.153Z,98960.86
2019-03-16T15:42:36.880Z,98957.09
2019-03-16T15:45:19.392Z,98952.97
2019-03-16T15:47:45.675Z,98939.30
2019-03-16T15:50:12.288Z,98945.12
2019-03-16T15:52:38.472Z,98940.66
2019-03-16T15:55:05.845Z,98939.33
2019-03-16T15:57:32.012Z,98938.00
2019-03-16T15:59:58.182Z,98932.05
2019-03-16T16:02:24.465Z,98927.89
2019-03-16T16:04:50.727Z,98935.48
2019-03-16T16:07:17.271Z,98918.09
2019-03-16T16:09:43.431Z,98923.69
2019-03-16T16:12:09.596Z,98931.28
2019-03-16T16:14:35.737Z,98931.09
2019-03-16T16:17:04.778Z,98932.90
2019-03-16T16:19:29.985Z,98939.81
2019-03-16T16:21:56.126Z,98937.34
2019-03-16T16:24:23.769Z,98929.87
2019-03-16T16:26:49.914Z,98939.33
2019-03-16T16:29:16.123Z,98925.72
2019-03-16T16:31:42.557Z,98921.41
2019-03-16T16:34:08.729Z,98933.98
2019-03-16T16:36:35.154Z,98933.14
2019-03-16T16:39:01.347Z,98943.24
2019-03-16T16:41:27.826Z,98942.72
2019-03-16T16:43:53.989Z,98949.49
2019-03-16T16:46:20.169Z,98951.31
2019-03-16T16:48:46.639Z,98949.83
2019-03-16T16:51:12.801Z,98948.16
2019-03-16T16:53:39.651Z,98956.26
2019-03-16T16:56:05.759Z,98940.03
2019-03-16T16:58:32.079Z,98958.39
2019-03-16T17:00:58.448Z,98951.59
2019-03-16T17:03:24.690Z,98958.72
2019-03-16T17:05:50.846Z,98957.22
2019-03-16T17:08:17.017Z,98959.03
2019-03-16T17:10:43.154Z,98953.08
2019-03-16T17:13:09.725Z,98965.33
2019-03-16T17:15:35.942Z,98965.82
2019-03-16T17:18:02.209Z,98961.83
2019-03-16T17:20:28.449Z,98955.38
2019-03-16T17:22:54.609Z,98942.80
2019-03-16T17:25:21.071Z,98952.71
2019-03-16T17:27:47.236Z,98950.57
2019-03-16T17:30:23.936Z,98948.41
2019-03-16T17:32:50.132Z,98954.39
2019-03-16T17:35:16.645Z,98944.94
2019-03-16T17:37:42.787Z,98950.42
2019-03-16T17:40:11.562Z,98958.51
2019-03-16T17:42:37.834Z,98965.64
2019-03-16T17:45:10.286Z,98961.67
2019-03-16T17:47:36.729Z,98963.00
2019-03-16T17:50:06.051Z,98964.80
2019-03-16T17:52:32.181Z,98970.10
2019-03-16T17:54:58.354Z,98968.28
2019-03-16T17:57:24.524Z,98965.30
2019-03-16T17:59:50.772Z,98969.92
2019-03-16T18:02:17.186Z,98968.76
2019-03-16T18:04:43.363Z,98972.24
2019-03-16T18:07:09.518Z,98967.78
2019-03-16T18:09:35.694Z,98961.66
2019-03-16T18:12:02.694Z,98962.66
2019-03-16T18:14:28.911Z,98958.52
2019-03-16T18:16:55.046Z,98964.80
2019-03-16T18:19:21.314Z,98961.16
2019-03-16T18:21:47.472Z,98958.69
2019-03-16T18:24:16.649Z,98968.62
2019-03-16T18:26:42.798Z,98966.80
2019-03-16T18:29:09.025Z,98972.77
2019-03-16T18:31:35.166Z,98969.28
2019-03-16T18:34:01.367Z,98965.96
2019-03-16T18:36:29.416Z,98972.08
2019-03-16T18:38:55.592Z,98964.61
2019-03-16T18:41:21.835Z,98966.13
2019-03-16T18:43:48.084Z,98959.66
2019-03-16T18:46:14.501Z,98962.49
2019-03-16T18:48:40.968Z,98958.84
2019-03-16T18:51:08.315Z,98956.67
2019-03-16T18:53:34.485Z,98967.61
2019-03-16T18:56:00.670Z,98963.94
2019-03-16T18:58:36.589Z,98969.73
2019-03-16T19:00:55.122Z,98972.53
2019-03-16T19:03:21.566Z,98970.88
2019-03-16T19:05:49.763Z,98967.88
2019-03-16T19:08:16.108Z,98973.00
2019-03-16T19:10:42.616Z,98972.16
2019-03-16T19:13:08.762Z,98973.81
2019-03-16T19:15:34.966Z,98983.27
2019-03-16T19:18:01.113Z,98978.13
2019-03-16T19:20:27.281Z,98975.48
2019-03-16T19:22:53.708Z,98980.63
2019-03-16T19:25:21.453Z,98967.52
2019-03-16T19:27:47.617Z,98968.69
2019-03-16T19:30:15.469Z,98966.88
2019-03-16T19:32:42.153Z,98967.73
2019-03-16T19:35:08.472Z,98963.73
2019-03-16T19:37:34.630Z,98978.33
2019-03-16T19:40:00.840Z,98977.52
2019-03-16T19:42:26.966Z,98970.40
2019-03-16T19:44:53.155Z,98977.84
2019-03-16T19:47:19.326Z,98984.61
2019-03-16T19:49:45.496Z,98982.16
2019-03-16T19:52:11.671Z,98977.03
2019-03-16T19:54:37.872Z,98977.36
2019-03-16T19:57:15.297Z,98975.22
2019-03-16T19:59:32.846Z,98978.36
2019-03-16T20:01:59.040Z,98975.38
2019-03-16T20:04:35.436Z,98964.63
2019-03-16T20:06:53.282Z,98967.95
2019-03-16T20:09:19.435Z,98964.31
2019-03-16T20:11:45.610Z,98973.58
2019-03-16T20:14:11.763Z,98975.24
2019-03-16T20:16:38.235Z,98977.06
2019-03-16T20:19:04.489Z,98975.08
2019-03-16T20:21:30.636Z,98970.12
2019-03-16T20:23:56.829Z,98975.77
2019-03-16T20:26:23.006Z,98968.81
2019-03-16T20:28:49.909Z,98971.78
2019-03-16T20:31:16.141Z,98975.09
2019-03-16T20:33:42.580Z,98974.75
2019-03-16T20:36:08.739Z,98981.53
2019-03-16T20:38:34.894Z,98976.73
2019-03-16T20:41:01.078Z,98976.04
2019-03-16T20:43:27.241Z,98980.84
2019-03-16T20:45:53.423Z,98981.84
2019-03-16T20:48:19.628Z,98982.66
2019-03-16T20:50:45.880Z,98979.84
2019-03-16T20:53:12.347Z,98988.63
2019-03-16T20:55:46.593Z,98989.11
2019-03-16T20:58:12.741Z,98987.97
2019-03-16T21:00:38.982Z,98986.61
2019-03-16T21:03:16.422Z,98993.89
2019-03-16T21:05:40.175Z,98989.12
2019-03-16T21:08:06.326Z,98990.94
2019-03-16T21:10:32.725Z,98993.61
2019-03-16T21:12:58.899Z,98990.45
2019-03-16T21:15:25.478Z,98995.44
2019-03-16T21:17:51.899Z,98987.34
2019-03-16T21:20:18.643Z,98983.04
2019-03-16T21:22:44.968Z,98980.06
2019-03-16T21:25:15.305Z,98982.36
2019-03-16T21:27:41.493Z,98976.09
2019-03-16T21:30:19.663Z,98977.73
2019-03-16T21:32:45.934Z,98973.11
2019-03-16T21:35:12.169Z,98971.80
2019-03-16T21:37:40.025Z,98973.47
2019-03-16T21:40:10.107Z,98968.17
2019-03-16T21:42:36.313Z,98963.19
2019-03-16T21:45:05.172Z,98963.34
2019-03-16T21:47:31.410Z,98962.01
2019-03-16T21:49:57.540Z,98958.53
2019-03-16T21:52:23.693Z,98950.76
2019-03-16T21:54:49.882Z,98955.92
2019-03-16T21:57:16.049Z,98952.93
2019-03-16T21:59:42.287Z,98948.98
2019-03-16T22:02:08.458Z,98955.27
2019-03-16T22:04:34.617Z,98957.42
2019-03-16T22:07:00.811Z,98957.91
2019-03-16T22:09:26.986Z,98964.19
2019-03-16T22:11:53.192Z,98963.72
2019-03-16T22:14:19.345Z,98959.89
2019-03-16T22:16:45.511Z,98962.55
2019-03-16T22:19:11.673Z,98963.55
2019-03-16T22:21:37.851Z,98964.53
2019-03-16T22:24:04.021Z,98959.06
2019-03-16T22:26:30.172Z,98957.41
2019-03-16T22:28:56.359Z,98954.44
2019-03-16T22:31:22.589Z,98954.27
2019-03-16T22:33:54.487Z,98950.96
2019-03-16T22:36:16.833Z,98951.94
2019-03-16T22:38:42.987Z,98953.76
2019-03-16T22:41:09.645Z,98953.09
2019-03-16T22:43:35.798Z,98946.66
2019-03-16T22:46:01.950Z,98949.64
2019-03-16T22:48:28.117Z,98950.95
2019-03-16T22:50:54.257Z,98945.50
2019-03-16T22:53:20.447Z,98948.15
2019-03-16T22:55:46.611Z,98949.13
2019-03-16T22:58:13.115Z,98948.32
2019-03-16T23:00:46.641Z,98943.83
2019-03-16T23:03:12.914Z,98946.83
2019-03-16T23:05:39.093Z,98951.92
2019-03-16T23:08:05.241Z,98945.78
2019-03-16T23:10:31.408Z,98946.78
2019-03-16T23:12:57.573Z,98948.11
2019-03-16T23:15:23.708Z,98942.18
2019-03-16T23:17:52.629Z,98944.01
2019-03-16T23:20:18.027Z,98936.56
2019-03-16T23:22:44.187Z,98932.44
2019-03-16T23:25:10.358Z,98931.47
2019-03-16T23:27:36.543Z,98925.48
2019-03-16T23:30:05.743Z,98920.38
2019-03-16T23:32:31.888Z,98924.55
2019-03-16T23:34:58.361Z,98924.89
2019-03-16T23:37:24.499Z,98916.81
2019-03-16T23:39:50.683Z,98910.87
2019-03-16T23:42:16.933Z,98912.01
2019-03-16T23:44:43.095Z,98913.69
2019-03-16T23:47:09.250Z,98904.44
2019-03-16T23:49:35.418Z,98910.09
2019-03-16T23:52:01.569Z,98912.06
2019-03-16T23:54:27.759Z,98909.73
2019-03-16T23:56:54.223Z,98903.95
2019-03-16T23:59:20.394Z,98904.27
